createdAt,value
2022-09-12T00:00:08.901Z,14.50
2022-09-12T00:00:40.745Z,14.40
2022-09-12T00:01:16.898Z,14.50
2022-09-12T00:01:48.754Z,14.50
2022-09-12T00:02:20.656Z,14.50
2022-09-12T00:02:54.549Z,14.50
2022-09-12T00:03:26.370Z,14.50
2022-09-12T00:03:59.821Z,14.50
2022-09-12T00:04:32.561Z,14.50
2022-09-12T00:05:07.312Z,14.50
2022-09-12T00:05:42.484Z,14.50
2022-09-12T00:06:22.651Z,14.50
2022-09-12T00:06:55.071Z,14.50
2022-09-12T00:07:26.891Z,14.50
2022-09-12T00:08:00.132Z,14.50
2022-09-12T00:08:31.907Z,14.50
2022-09-12T00:09:07.901Z,14.50
2022-09-12T00:09:40.218Z,14.50
2022-09-12T00:10:12.008Z,14.50
2022-09-12T00:10:44.348Z,14.50
2022-09-12T00:11:17.092Z,14.50
2022-09-12T00:11:48.879Z,14.50
2022-09-12T00:12:20.672Z,14.50
2022-09-12T00:12:52.540Z,14.50
2022-09-12T00:13:25.268Z,14.40
2022-09-12T00:13:58.182Z,14.40
2022-09-12T00:14:30.162Z,14.40
2022-09-12T00:15:03.425Z,14.40
2022-09-12T00:15:38.410Z,14.40
2022-09-12T00:16:22.645Z,14.40
2022-09-12T00:16:58.579Z,14.40
2022-09-12T00:17:30.385Z,14.40
2022-09-12T00:18:02.180Z,14.30
2022-09-12T00:18:34.172Z,14.30
2022-09-12T00:19:08.481Z,14.30
2022-09-12T00:19:40.317Z,14.30
2022-09-12T00:20:12.190Z,14.30
2022-09-12T00:20:46.471Z,14.30
2022-09-12T00:21:18.824Z,14.30
2022-09-12T00:21:50.656Z,14.30
2022-09-12T00:22:23.665Z,14.30
2022-09-12T00:22:55.468Z,14.30
2022-09-12T00:23:27.228Z,14.30
2022-09-12T00:23:59.071Z,14.30
2022-09-12T00:24:33.380Z,14.40
2022-09-12T00:25:06.730Z,14.30
2022-09-12T00:25:42.454Z,14.30
2022-09-12T00:26:17.061Z,14.30
2022-09-12T00:26:48.932Z,14.50
2022-09-12T00:27:20.688Z,14.40
2022-09-12T00:27:53.429Z,14.30
2022-09-12T00:28:25.373Z,14.30
2022-09-12T00:28:57.240Z,14.30
2022-09-12T00:29:29.999Z,14.30
2022-09-12T00:30:01.761Z,14.30
2022-09-12T00:30:34.018Z,14.40
2022-09-12T00:31:07.244Z,14.40
2022-09-12T00:31:41.411Z,14.40
2022-09-12T00:32:13.256Z,14.40
2022-09-12T00:32:45.028Z,14.40
2022-09-12T00:33:19.267Z,14.30
2022-09-12T00:33:51.113Z,14.30
2022-09-12T00:34:23.857Z,14.40
2022-09-12T00:34:55.639Z,14.30
2022-09-12T00:35:27.404Z,14.30
2022-09-12T00:36:00.177Z,14.30
2022-09-12T00:36:32.003Z,14.30
2022-09-12T00:37:03.854Z,14.30
2022-09-12T00:37:36.802Z,14.40
2022-09-12T00:38:08.598Z,14.30
2022-09-12T00:38:42.051Z,14.30
2022-09-12T00:39:17.733Z,14.20
2022-09-12T00:39:49.587Z,14.20
2022-09-12T00:40:21.452Z,14.20
2022-09-12T00:40:54.277Z,14.20
2022-09-12T00:41:28.975Z,14.20
2022-09-12T00:42:00.875Z,14.10
2022-09-12T00:42:33.667Z,14.10
2022-09-12T00:43:05.615Z,14.10
2022-09-12T00:43:40.117Z,14.10
2022-09-12T00:44:49.113Z,14.10
2022-09-12T00:45:31.327Z,14.10
2022-09-12T00:46:08.005Z,14.00
2022-09-12T00:46:45.277Z,14.10
2022-09-12T00:47:22.205Z,14.10
2022-09-12T00:47:54.891Z,14.00
2022-09-12T00:48:34.466Z,14.00
2022-09-12T00:49:12.380Z,14.10
2022-09-12T00:49:48.431Z,14.10
2022-09-12T00:50:21.227Z,14.10
2022-09-12T00:50:53.341Z,14.10
2022-09-12T00:51:25.744Z,14.10
2022-09-12T00:52:04.267Z,14.10
2022-09-12T00:52:41.067Z,14.10
2022-09-12T00:53:12.870Z,14.20
2022-09-12T00:53:47.309Z,14.20
2022-09-12T00:54:22.541Z,14.10
2022-09-12T00:54:59.681Z,14.20
2022-09-12T00:55:36.357Z,14.20
2022-09-12T00:56:08.476Z,14.20
2022-09-12T00:56:42.528Z,14.20
2022-09-12T00:57:17.512Z,14.20
2022-09-12T00:57:52.996Z,14.20
2022-09-12T00:58:27.969Z,14.20
2022-09-12T00:59:06.213Z,14.20
2022-09-12T00:59:41.418Z,14.20
2022-09-12T01:00:15.633Z,14.20
2022-09-12T01:00:48.729Z,14.20
2022-09-12T01:01:20.642Z,14.20
2022-09-12T01:01:55.949Z,14.20
2022-09-12T01:02:29.392Z,14.20
2022-09-12T01:03:04.261Z,14.20
2022-09-12T01:03:36.067Z,14.20
2022-09-12T01:04:09.690Z,14.10
2022-09-12T01:04:42.456Z,14.10
2022-09-12T01:05:14.935Z,14.10
2022-09-12T01:05:55.869Z,14.10
2022-09-12T01:06:32.743Z,14.20
2022-09-12T01:07:06.169Z,14.10
2022-09-12T01:07:40.359Z,14.10
2022-09-12T01:08:12.556Z,14.10
2022-09-12T01:08:46.784Z,14.10
2022-09-12T01:09:22.703Z,14.10
2022-09-12T01:09:54.586Z,14.20
2022-09-12T01:10:26.349Z,14.10
2022-09-12T01:10:59.246Z,14.20
2022-09-12T01:11:31.959Z,14.10
2022-09-12T01:12:05.041Z,14.20
2022-09-12T01:12:40.952Z,14.20
2022-09-12T01:13:13.189Z,14.20
2022-09-12T01:13:46.060Z,14.20
2022-09-12T01:14:20.416Z,14.20
2022-09-12T01:14:52.218Z,14.20
2022-09-12T01:15:24.125Z,14.20
2022-09-12T01:15:57.211Z,14.20
2022-09-12T01:16:29.821Z,14.10
2022-09-12T01:17:03.048Z,14.10
2022-09-12T01:17:43.010Z,14.10
2022-09-12T01:18:24.842Z,14.10
2022-09-12T01:19:11.125Z,14.10
2022-09-12T01:20:26.369Z,14.00
2022-09-12T01:21:17.446Z,14.00
2022-09-12T01:22:01.240Z,14.00
2022-09-12T01:22:54.274Z,14.00
2022-09-12T01:23:57.127Z,13.90
2022-09-12T01:24:54.784Z,13.90
2022-09-12T01:25:31.001Z,13.90
2022-09-12T01:26:34.287Z,13.90
2022-09-12T01:27:24.687Z,13.90
2022-09-12T01:28:34.626Z,13.90
2022-09-12T01:29:27.228Z,13.90
2022-09-12T01:30:41.626Z,13.80
2022-09-12T01:31:20.405Z,13.80
2022-09-12T01:32:01.099Z,13.80
2022-09-12T01:32:43.255Z,13.80
2022-09-12T01:33:32.606Z,13.80
2022-09-12T01:34:17.982Z,13.80
2022-09-12T01:34:56.949Z,13.80
2022-09-12T01:35:37.674Z,13.80
2022-09-12T01:36:29.781Z,13.80
2022-09-12T01:37:06.113Z,13.80
2022-09-12T01:37:42.410Z,14.00
2022-09-12T01:38:25.761Z,13.90
2022-09-12T01:39:02.034Z,13.80
2022-09-12T01:39:40.218Z,13.90
2022-09-12T01:40:18.686Z,13.90
2022-09-12T01:41:00.423Z,13.90
2022-09-12T01:41:45.827Z,13.90
2022-09-12T01:42:25.403Z,13.80
2022-09-12T01:43:08.086Z,13.80
2022-09-12T01:43:48.280Z,13.80
2022-09-12T01:44:26.804Z,13.80
2022-09-12T01:45:11.503Z,13.80
2022-09-12T01:45:49.469Z,13.80
2022-09-12T01:46:25.561Z,13.80
2022-09-12T01:47:03.083Z,13.90
2022-09-12T01:47:40.238Z,13.70
2022-09-12T01:48:17.274Z,13.70
2022-09-12T01:48:55.672Z,13.80
2022-09-12T01:49:33.049Z,13.80
2022-09-12T01:50:09.582Z,13.80
2022-09-12T01:50:47.764Z,13.80
2022-09-12T01:51:23.820Z,13.80
2022-09-12T01:52:01.125Z,13.80
2022-09-12T01:52:37.817Z,13.80
2022-09-12T01:53:15.285Z,13.80
2022-09-12T01:53:52.640Z,13.80
2022-09-12T01:54:29.782Z,13.80
2022-09-12T01:55:09.774Z,13.90
2022-09-12T01:55:47.010Z,13.80
2022-09-12T01:56:25.835Z,13.90
2022-09-12T01:57:03.045Z,13.80
2022-09-12T01:57:41.230Z,13.80
2022-09-12T01:58:17.961Z,13.80
2022-09-12T01:58:56.152Z,13.90
2022-09-12T01:59:33.918Z,13.80
2022-09-12T02:00:09.962Z,13.80
2022-09-12T02:00:48.456Z,13.80
2022-09-12T02:01:26.400Z,13.80
2022-09-12T02:02:04.386Z,13.80
2022-09-12T02:02:39.393Z,13.80
2022-09-12T02:03:15.356Z,13.80
2022-09-12T02:03:52.715Z,13.70
2022-09-12T02:04:31.110Z,13.70
2022-09-12T02:05:11.104Z,13.70
2022-09-12T02:05:47.081Z,13.80
2022-09-12T02:06:21.134Z,13.80
2022-09-12T02:06:58.418Z,13.80
2022-09-12T02:07:37.357Z,13.80
2022-09-12T02:08:13.846Z,13.80
2022-09-12T02:08:50.236Z,13.80
2022-09-12T02:09:25.975Z,13.80
2022-09-12T02:10:04.065Z,13.80
2022-09-12T02:10:44.557Z,13.80
2022-09-12T02:11:16.795Z,13.80
2022-09-12T02:11:53.471Z,13.80
2022-09-12T02:12:30.369Z,13.80
2022-09-12T02:13:07.130Z,13.90
2022-09-12T02:13:42.678Z,13.80
2022-09-12T02:14:20.424Z,13.80
2022-09-12T02:14:57.238Z,13.80
2022-09-12T02:15:35.974Z,13.80
2022-09-12T02:16:11.956Z,13.80
2022-09-12T02:16:47.842Z,13.80
2022-09-12T02:17:23.088Z,13.80
2022-09-12T02:17:58.997Z,13.80
2022-09-12T02:18:33.809Z,13.80
2022-09-12T02:19:11.033Z,13.80
2022-09-12T02:19:46.457Z,13.80
2022-09-12T02:20:44.303Z,13.80
2022-09-12T02:21:15.061Z,13.80
2022-09-12T02:21:51.165Z,13.80
2022-09-12T02:22:25.794Z,13.80
2022-09-12T02:23:01.798Z,13.80
2022-09-12T02:23:38.505Z,13.80
2022-09-12T02:24:12.549Z,13.80
2022-09-12T02:24:49.373Z,13.80
2022-09-12T02:25:22.250Z,13.80
2022-09-12T02:25:57.603Z,13.80
2022-09-12T02:26:35.260Z,13.80
2022-09-12T02:27:11.345Z,13.80
2022-09-12T02:27:46.942Z,13.80
2022-09-12T02:28:24.245Z,13.80
2022-09-12T02:28:57.456Z,13.80
2022-09-12T02:29:30.116Z,13.80
2022-09-12T02:30:02.129Z,13.70
2022-09-12T02:30:51.333Z,13.70
2022-09-12T02:31:29.913Z,13.70
2022-09-12T02:32:06.124Z,13.70
2022-09-12T02:32:42.453Z,13.80
2022-09-12T02:33:20.422Z,13.80
2022-09-12T02:34:05.245Z,13.70
2022-09-12T02:34:46.212Z,13.70
2022-09-12T02:35:28.771Z,13.80
2022-09-12T02:36:11.066Z,13.70
2022-09-12T02:36:52.913Z,13.80
2022-09-12T02:37:34.025Z,13.70
2022-09-12T02:38:09.659Z,13.70
2022-09-12T02:38:45.544Z,13.70
2022-09-12T02:39:20.029Z,13.70
2022-09-12T02:39:53.473Z,13.60
2022-09-12T02:40:26.732Z,13.70
2022-09-12T02:40:58.673Z,13.70
2022-09-12T02:41:30.509Z,13.70
2022-09-12T02:42:04.921Z,13.70
2022-09-12T02:42:37.435Z,13.70
2022-09-12T02:43:09.419Z,13.70
2022-09-12T02:43:42.235Z,13.70
2022-09-12T02:44:14.037Z,13.70
2022-09-12T02:44:45.856Z,13.70
2022-09-12T02:45:19.308Z,13.70
2022-09-12T02:45:51.311Z,13.70
2022-09-12T02:46:28.689Z,13.70
2022-09-12T02:47:05.697Z,13.70
2022-09-12T02:47:42.084Z,13.70
2022-09-12T02:48:18.035Z,13.70
2022-09-12T02:48:50.874Z,13.70
2022-09-12T02:49:23.157Z,13.70
2022-09-12T02:49:56.774Z,13.70
2022-09-12T02:50:29.265Z,13.70
2022-09-12T02:51:03.104Z,13.60
2022-09-12T02:51:34.971Z,13.60
2022-09-12T02:52:07.128Z,13.70
2022-09-12T02:52:40.805Z,13.70
2022-09-12T02:53:12.964Z,13.70
2022-09-12T02:53:44.798Z,13.70
2022-09-12T02:54:19.300Z,13.70
2022-09-12T02:54:51.860Z,13.70
2022-09-12T02:55:24.644Z,13.70
2022-09-12T02:55:58.098Z,13.70
2022-09-12T02:56:31.315Z,13.60
2022-09-12T02:57:03.226Z,13.70
2022-09-12T02:57:35.992Z,13.70
2022-09-12T02:58:13.975Z,13.70
2022-09-12T02:58:46.430Z,13.70
2022-09-12T02:59:22.396Z,13.70
2022-09-12T02:59:58.610Z,13.70
2022-09-12T03:00:34.825Z,13.70
2022-09-12T03:01:15.157Z,13.70
2022-09-12T03:02:15.278Z,13.70
2022-09-12T03:03:04.658Z,13.70
2022-09-12T03:03:50.029Z,13.70
2022-09-12T03:04:42.866Z,13.60
2022-09-12T03:05:24.780Z,13.60
2022-09-12T03:05:59.377Z,13.60
2022-09-12T03:06:40.675Z,13.60
2022-09-12T03:07:21.694Z,13.50
2022-09-12T03:08:17.368Z,13.50
2022-09-12T03:09:02.882Z,13.60
2022-09-12T03:09:39.151Z,13.60
2022-09-12T03:10:19.367Z,13.50
2022-09-12T03:11:16.416Z,13.60
2022-09-12T03:12:07.625Z,13.50
2022-09-12T03:12:47.813Z,13.50
2022-09-12T03:13:26.413Z,13.50
2022-09-12T03:14:07.596Z,13.40
2022-09-12T03:15:01.386Z,13.50
2022-09-12T03:15:44.009Z,13.50
2022-09-12T03:16:23.680Z,13.50
2022-09-12T03:17:11.699Z,13.50
2022-09-12T03:17:56.317Z,13.50
2022-09-12T03:18:40.340Z,13.50
2022-09-12T03:19:26.176Z,13.40
2022-09-12T03:20:03.400Z,13.40
2022-09-12T03:20:45.584Z,13.40
2022-09-12T03:21:28.054Z,13.40
2022-09-12T03:22:11.711Z,13.40
2022-09-12T03:22:53.093Z,13.30
2022-09-12T03:23:30.185Z,13.30
2022-09-12T03:24:13.488Z,13.30
2022-09-12T03:24:51.737Z,13.30
2022-09-12T03:25:28.549Z,13.40
2022-09-12T03:26:07.169Z,13.40
2022-09-12T03:26:43.230Z,13.40
2022-09-12T03:27:19.069Z,13.40
2022-09-12T03:27:59.040Z,13.40
2022-09-12T03:28:32.909Z,13.40
2022-09-12T03:29:07.030Z,13.40
2022-09-12T03:29:41.200Z,13.40
2022-09-12T03:30:13.133Z,13.40
2022-09-12T03:30:46.383Z,13.40
2022-09-12T03:31:20.618Z,13.50
2022-09-12T03:31:54.470Z,13.50
2022-09-12T03:32:46.259Z,13.50
2022-09-12T03:33:20.710Z,13.50
2022-09-12T03:33:52.494Z,13.50
2022-09-12T03:34:26.307Z,13.50
2022-09-12T03:34:59.050Z,13.50
2022-09-12T03:35:30.874Z,13.40
2022-09-12T03:36:02.965Z,13.50
2022-09-12T03:36:35.754Z,13.50
2022-09-12T03:37:07.679Z,13.50
2022-09-12T03:37:39.777Z,13.50
2022-09-12T03:38:12.558Z,13.50
2022-09-12T03:38:44.364Z,13.50
2022-09-12T03:39:16.852Z,13.50
2022-09-12T03:39:49.602Z,13.50
2022-09-12T03:40:21.573Z,13.50
2022-09-12T03:40:54.956Z,13.50
2022-09-12T03:41:27.847Z,13.50
2022-09-12T03:41:59.637Z,13.50
2022-09-12T03:42:31.549Z,13.50
2022-09-12T03:43:03.544Z,13.50
2022-09-12T03:43:36.294Z,13.50
2022-09-12T03:44:08.144Z,13.50
2022-09-12T03:44:39.942Z,13.50
2022-09-12T03:45:12.733Z,13.40
2022-09-12T03:45:44.537Z,13.40
2022-09-12T03:46:16.366Z,13.40
2022-09-12T03:46:49.293Z,13.40
2022-09-12T03:47:21.040Z,13.40
2022-09-12T03:47:54.157Z,13.40
2022-09-12T03:48:26.957Z,13.40
2022-09-12T03:48:58.768Z,13.40
2022-09-12T03:49:30.525Z,13.40
2022-09-12T03:50:03.600Z,13.40
2022-09-12T03:50:35.423Z,13.40
2022-09-12T03:51:09.173Z,13.40
2022-09-12T03:51:42.930Z,13.40
2022-09-12T03:52:15.329Z,13.40
2022-09-12T03:52:47.114Z,13.40
2022-09-12T03:53:19.884Z,13.40
2022-09-12T03:53:51.653Z,13.40
2022-09-12T03:54:23.573Z,13.40
2022-09-12T03:54:56.326Z,13.50
2022-09-12T03:55:28.120Z,13.40
2022-09-12T03:56:00.454Z,13.40
2022-09-12T03:56:33.483Z,13.40
2022-09-12T03:57:05.425Z,13.40
2022-09-12T03:57:37.218Z,13.40
2022-09-12T03:58:09.975Z,13.40
2022-09-12T03:58:41.883Z,13.40
2022-09-12T03:59:13.692Z,13.40
2022-09-12T03:59:45.454Z,13.40
2022-09-12T04:00:19.979Z,13.40
2022-09-12T04:00:51.912Z,13.40
2022-09-12T04:01:24.015Z,13.40
2022-09-12T04:01:56.830Z,13.40
2022-09-12T04:02:29.204Z,13.40
2022-09-12T04:03:02.328Z,13.40
2022-09-12T04:03:35.083Z,13.40
2022-09-12T04:04:06.857Z,13.40
2022-09-12T04:04:38.734Z,13.40
2022-09-12T04:05:11.491Z,13.40
2022-09-12T04:05:43.242Z,13.40
2022-09-12T04:06:17.321Z,13.40
2022-09-12T04:06:50.242Z,13.40
2022-09-12T04:07:22.042Z,13.40
2022-09-12T04:07:53.881Z,13.40
2022-09-12T04:08:27.196Z,13.40
2022-09-12T04:08:59.153Z,13.40
2022-09-12T04:09:30.941Z,13.40
2022-09-12T04:10:04.082Z,13.40
2022-09-12T04:10:35.906Z,13.40
2022-09-12T04:11:10.526Z,13.40
2022-09-12T04:11:43.282Z,13.40
2022-09-12T04:12:15.124Z,13.30
2022-09-12T04:12:47.085Z,13.30
2022-09-12T04:13:19.842Z,13.30
2022-09-12T04:13:51.655Z,13.30
2022-09-12T04:14:23.824Z,13.30
2022-09-12T04:14:56.541Z,13.30
2022-09-12T04:15:28.364Z,13.30
2022-09-12T04:16:00.552Z,13.20
2022-09-12T04:16:33.574Z,13.20
2022-09-12T04:17:05.417Z,13.30
2022-09-12T04:17:37.181Z,13.20
2022-09-12T04:18:11.229Z,13.30
2022-09-12T04:18:43.287Z,13.30
2022-09-12T04:19:15.176Z,13.30
2022-09-12T04:19:47.921Z,13.30
2022-09-12T04:20:20.013Z,13.30
2022-09-12T04:20:51.797Z,13.30
2022-09-12T04:21:24.581Z,13.30
2022-09-12T04:21:56.365Z,13.20
2022-09-12T04:22:29.765Z,13.20
2022-09-12T04:23:01.534Z,13.20
2022-09-12T04:23:34.849Z,13.20
2022-09-12T04:24:06.673Z,13.20
2022-09-12T04:24:38.533Z,13.20
2022-09-12T04:25:11.610Z,13.40
2022-09-12T04:25:43.414Z,13.20
2022-09-12T04:26:17.342Z,13.20
2022-09-12T04:26:50.141Z,13.10
2022-09-12T04:27:21.904Z,13.20
2022-09-12T04:27:53.688Z,13.20
2022-09-12T04:28:26.166Z,13.20
2022-09-12T04:28:59.115Z,13.20
2022-09-12T04:29:31.429Z,13.20
2022-09-12T04:30:04.568Z,13.20
2022-09-12T04:30:37.911Z,13.20
2022-09-12T04:31:13.837Z,13.20
2022-09-12T04:31:45.693Z,13.20
2022-09-12T04:32:18.785Z,13.20
2022-09-12T04:32:50.560Z,13.20
2022-09-12T04:33:23.687Z,13.20
2022-09-12T04:33:57.732Z,13.20
2022-09-12T04:34:31.005Z,13.10
2022-09-12T04:35:03.315Z,13.10
2022-09-12T04:35:36.478Z,13.10
2022-09-12T04:36:10.317Z,13.10
2022-09-12T04:36:42.261Z,13.10
2022-09-12T04:37:15.078Z,13.10
2022-09-12T04:37:46.881Z,13.10
2022-09-12T04:38:18.699Z,13.10
2022-09-12T04:38:52.220Z,13.10
2022-09-12T04:39:24.329Z,13.10
2022-09-12T04:39:57.833Z,13.10
2022-09-12T04:40:31.368Z,13.10
2022-09-12T04:41:11.265Z,13.10
2022-09-12T04:41:44.070Z,13.00
2022-09-12T04:42:15.926Z,13.00
2022-09-12T04:42:47.687Z,13.00
2022-09-12T04:43:20.486Z,13.10
2022-09-12T04:43:53.669Z,13.00
2022-09-12T04:44:26.397Z,13.10
2022-09-12T04:44:58.181Z,13.10
2022-09-12T04:45:30.455Z,13.10
2022-09-12T04:46:06.757Z,13.10
2022-09-12T04:46:41.022Z,13.10
2022-09-12T04:47:12.790Z,13.10
2022-09-12T04:47:46.629Z,13.10
2022-09-12T04:48:18.679Z,13.10
2022-09-12T04:48:56.061Z,13.10
2022-09-12T04:49:29.693Z,13.10
2022-09-12T04:50:01.506Z,13.10
2022-09-12T04:50:33.350Z,13.00
2022-09-12T04:51:10.096Z,13.00
2022-09-12T04:51:43.948Z,13.00
2022-09-12T04:52:15.799Z,13.00
2022-09-12T04:52:50.390Z,13.00
2022-09-12T04:53:23.168Z,13.00
2022-09-12T04:53:57.565Z,12.90
2022-09-12T04:54:29.357Z,13.00
2022-09-12T04:55:02.186Z,12.90
2022-09-12T04:55:35.469Z,12.90
2022-09-12T04:56:09.731Z,13.10
2022-09-12T04:56:44.379Z,12.90
2022-09-12T04:57:16.371Z,13.00
2022-09-12T04:57:48.614Z,13.00
2022-09-12T04:58:21.401Z,13.00
2022-09-12T04:58:53.206Z,13.00
2022-09-12T04:59:26.438Z,13.10
2022-09-12T05:00:01.797Z,13.10
2022-09-12T05:00:35.761Z,13.10
2022-09-12T05:01:11.179Z,13.10
2022-09-12T05:01:43.238Z,13.10
2022-09-12T05:02:15.248Z,13.00
2022-09-12T05:02:48.250Z,13.00
2022-09-12T05:03:20.017Z,13.00
2022-09-12T05:03:53.750Z,13.10
2022-09-12T05:04:26.488Z,13.00
2022-09-12T05:04:58.529Z,13.00
2022-09-12T05:05:30.281Z,13.00
2022-09-12T05:06:04.193Z,13.10
2022-09-12T05:06:38.165Z,13.00
2022-09-12T05:07:10.129Z,13.00
2022-09-12T05:07:43.252Z,13.00
2022-09-12T05:08:15.442Z,13.00
2022-09-12T05:08:47.758Z,13.00
2022-09-12T05:09:20.596Z,13.00
2022-09-12T05:09:52.397Z,13.10
2022-09-12T05:10:24.205Z,13.00
2022-09-12T05:10:57.045Z,13.00
2022-09-12T05:11:53.090Z,13.10
2022-09-12T05:12:23.699Z,13.10
2022-09-12T05:12:55.485Z,13.00
2022-09-12T05:13:27.386Z,13.00
2022-09-12T05:14:00.475Z,13.00
2022-09-12T05:14:32.921Z,13.00
2022-09-12T05:15:06.743Z,13.00
2022-09-12T05:15:39.873Z,13.00
2022-09-12T05:16:13.358Z,13.00
2022-09-12T05:16:49.461Z,13.00
2022-09-12T05:17:21.612Z,13.00
2022-09-12T05:17:53.385Z,13.20
2022-09-12T05:18:26.443Z,13.00
2022-09-12T05:19:00.385Z,13.10
2022-09-12T05:19:33.405Z,13.10
2022-09-12T05:20:05.903Z,13.10
2022-09-12T05:20:37.900Z,13.10
2022-09-12T05:21:14.598Z,13.10
2022-09-12T05:21:46.405Z,13.10
2022-09-12T05:22:19.133Z,13.10
2022-09-12T05:22:50.910Z,13.10
2022-09-12T05:23:24.678Z,13.10
2022-09-12T05:23:59.666Z,13.20
2022-09-12T05:24:32.533Z,13.10
2022-09-12T05:25:05.657Z,13.20
2022-09-12T05:25:38.413Z,13.20
2022-09-12T05:26:13.387Z,13.20
2022-09-12T05:26:45.166Z,13.20
2022-09-12T05:27:17.984Z,13.20
2022-09-12T05:27:52.546Z,13.20
2022-09-12T05:28:25.729Z,13.20
2022-09-12T05:28:58.534Z,13.20
2022-09-12T05:29:30.432Z,13.20
2022-09-12T05:30:02.225Z,13.20
2022-09-12T05:30:35.019Z,13.20
2022-09-12T05:31:08.891Z,13.20
2022-09-12T05:31:41.797Z,13.20
2022-09-12T05:32:13.635Z,13.20
2022-09-12T05:32:45.772Z,13.30
2022-09-12T05:33:20.963Z,13.10
2022-09-12T05:33:56.931Z,13.10
2022-09-12T05:34:31.066Z,13.10
2022-09-12T05:35:02.920Z,13.10
2022-09-12T05:35:34.721Z,13.10
2022-09-12T05:36:10.778Z,13.10
2022-09-12T05:36:42.750Z,13.10
2022-09-12T05:37:15.605Z,13.10
2022-09-12T05:37:47.441Z,13.10
2022-09-12T05:38:19.254Z,13.10
2022-09-12T05:38:52.193Z,13.10
2022-09-12T05:39:24.541Z,13.10
2022-09-12T05:39:56.635Z,13.10
2022-09-12T05:40:29.411Z,13.10
2022-09-12T05:41:06.196Z,13.10
2022-09-12T05:41:39.125Z,13.10
2022-09-12T05:42:10.960Z,13.10
2022-09-12T05:42:43.721Z,13.10
2022-09-12T05:43:15.544Z,13.10
2022-09-12T05:43:51.192Z,13.10
2022-09-12T05:44:24.794Z,13.10
2022-09-12T05:44:57.233Z,13.10
2022-09-12T05:45:31.638Z,13.10
2022-09-12T05:46:04.445Z,13.10
2022-09-12T05:46:38.180Z,13.10
2022-09-12T05:47:13.117Z,13.10
2022-09-12T05:47:46.672Z,13.10
2022-09-12T05:48:18.501Z,13.10
2022-09-12T05:48:55.904Z,13.10
2022-09-12T05:49:30.144Z,13.10
2022-09-12T05:50:02.058Z,13.10
2022-09-12T05:50:34.816Z,13.10
2022-09-12T05:51:09.553Z,13.00
2022-09-12T05:51:45.245Z,13.10
2022-09-12T05:52:17.077Z,13.10
2022-09-12T05:52:48.859Z,13.10
2022-09-12T05:53:21.741Z,13.10
2022-09-12T05:53:55.644Z,13.10
2022-09-12T05:54:31.675Z,13.10
2022-09-12T05:55:04.151Z,13.10
2022-09-12T05:55:36.633Z,13.20
2022-09-12T05:56:11.409Z,13.20
2022-09-12T05:56:44.709Z,13.20
2022-09-12T05:57:16.550Z,13.20
2022-09-12T05:57:49.357Z,13.20
2022-09-12T05:58:21.346Z,13.30
2022-09-12T05:58:55.825Z,13.30
2022-09-12T05:59:28.624Z,13.30
2022-09-12T06:00:01.100Z,13.30
2022-09-12T06:00:33.623Z,13.40
2022-09-12T06:01:08.433Z,13.40
2022-09-12T06:01:40.811Z,13.40
2022-09-12T06:02:13.947Z,13.40
2022-09-12T06:02:45.770Z,13.40
2022-09-12T06:03:17.637Z,13.50
2022-09-12T06:03:52.480Z,13.50
2022-09-12T06:04:25.404Z,13.60
2022-09-12T06:04:58.510Z,13.50
2022-09-12T06:05:33.096Z,13.50
2022-09-12T06:06:07.115Z,13.50
2022-09-12T06:06:41.636Z,13.50
2022-09-12T06:07:15.533Z,13.50
2022-09-12T06:07:47.411Z,13.50
2022-09-12T06:08:19.168Z,13.50
2022-09-12T06:08:53.337Z,13.50
2022-09-12T06:09:25.610Z,13.50
2022-09-12T06:09:59.158Z,13.50
2022-09-12T06:10:32.001Z,13.50
2022-09-12T06:11:05.715Z,13.50
2022-09-12T06:11:40.684Z,13.50
2022-09-12T06:12:13.582Z,13.50
2022-09-12T06:12:45.449Z,13.50
2022-09-12T06:13:17.214Z,13.50
2022-09-12T06:13:50.833Z,13.50
2022-09-12T06:14:22.724Z,13.50
2022-09-12T06:14:54.487Z,13.50
2022-09-12T06:15:27.782Z,13.50
2022-09-12T06:16:05.284Z,13.50
2022-09-12T06:16:38.061Z,13.50
2022-09-12T06:17:10.824Z,13.50
2022-09-12T06:17:42.582Z,13.50
2022-09-12T06:18:14.377Z,13.60
2022-09-12T06:18:49.164Z,13.60
2022-09-12T06:19:23.100Z,13.60
2022-09-12T06:19:55.229Z,13.60
2022-09-12T06:20:29.347Z,13.60
2022-09-12T06:21:03.723Z,13.60
2022-09-12T06:21:35.532Z,13.60
2022-09-12T06:22:08.313Z,13.60
2022-09-12T06:22:40.106Z,13.60
2022-09-12T06:23:12.607Z,13.60
2022-09-12T06:23:47.003Z,13.60
2022-09-12T06:24:20.114Z,13.70
2022-09-12T06:24:54.830Z,13.80
2022-09-12T06:25:30.550Z,13.70
2022-09-12T06:26:04.147Z,13.70
2022-09-12T06:26:37.017Z,13.70
2022-09-12T06:27:08.816Z,13.70
2022-09-12T06:27:40.575Z,13.70
2022-09-12T06:28:12.382Z,13.80
2022-09-12T06:28:46.283Z,13.80
2022-09-12T06:29:19.215Z,13.80
2022-09-12T06:29:51.498Z,13.80
2022-09-12T06:30:25.571Z,13.80
2022-09-12T06:31:04.467Z,13.80
2022-09-12T06:31:39.125Z,13.80
2022-09-12T06:32:11.526Z,13.80
2022-09-12T06:32:43.305Z,13.90
2022-09-12T06:33:15.477Z,13.80
2022-09-12T06:33:50.206Z,13.90
2022-09-12T06:34:22.013Z,13.90
2022-09-12T06:34:54.794Z,13.90
2022-09-12T06:35:27.932Z,13.80
2022-09-12T06:36:06.895Z,13.90
2022-09-12T06:36:43.209Z,13.90
2022-09-12T06:37:15.061Z,13.90
2022-09-12T06:37:46.808Z,13.90
2022-09-12T06:38:19.638Z,13.90
2022-09-12T06:38:54.890Z,13.90
2022-09-12T06:39:27.656Z,13.90
2022-09-12T06:40:01.987Z,13.90
2022-09-12T06:40:33.985Z,13.90
2022-09-12T06:41:07.894Z,13.90
2022-09-12T06:41:43.650Z,13.90
2022-09-12T06:42:17.085Z,13.90
2022-09-12T06:42:48.850Z,14.00
2022-09-12T06:43:20.624Z,14.00
2022-09-12T06:43:54.005Z,14.00
2022-09-12T06:44:25.790Z,14.00
2022-09-12T06:44:57.626Z,14.10
2022-09-12T06:45:30.390Z,14.10
2022-09-12T06:46:03.160Z,14.10
2022-09-12T06:46:35.094Z,14.10
2022-09-12T06:47:08.406Z,14.10
2022-09-12T06:47:40.222Z,14.20
2022-09-12T06:48:12.009Z,14.20
2022-09-12T06:48:44.839Z,14.20
2022-09-12T06:49:17.452Z,14.30
2022-09-12T06:49:50.851Z,14.30
2022-09-12T06:50:22.941Z,14.30
2022-09-12T06:51:00.278Z,14.30
2022-09-12T06:51:33.041Z,14.30
2022-09-12T06:52:04.990Z,14.30
2022-09-12T06:52:36.765Z,14.40
2022-09-12T06:53:09.681Z,14.40
2022-09-12T06:53:42.429Z,14.40
2022-09-12T06:54:16.680Z,14.40
2022-09-12T06:54:49.410Z,14.40
2022-09-12T06:55:25.784Z,14.50
2022-09-12T06:56:00.559Z,14.50
2022-09-12T06:56:33.301Z,14.50
2022-09-12T06:57:05.137Z,14.50
2022-09-12T06:57:38.813Z,14.70
2022-09-12T06:58:10.764Z,14.50
2022-09-12T06:58:43.654Z,14.50
2022-09-12T06:59:16.577Z,14.50
2022-09-12T06:59:48.377Z,14.50
2022-09-12T07:00:21.144Z,14.50
2022-09-12T07:00:57.209Z,14.50
2022-09-12T07:01:32.013Z,14.50
2022-09-12T07:02:04.840Z,14.60
2022-09-12T07:02:36.683Z,14.60
2022-09-12T07:03:08.724Z,14.60
2022-09-12T07:03:41.759Z,14.60
2022-09-12T07:04:13.528Z,14.60
2022-09-12T07:04:45.525Z,14.60
2022-09-12T07:05:18.264Z,14.70
2022-09-12T07:05:50.096Z,14.60
2022-09-12T07:06:29.649Z,14.70
2022-09-12T07:07:02.637Z,14.70
2022-09-12T07:07:35.809Z,14.70
2022-09-12T07:08:07.639Z,14.70
2022-09-12T07:08:41.270Z,14.70
2022-09-12T07:09:16.309Z,14.70
2022-09-12T07:09:49.310Z,14.80
2022-09-12T07:10:22.441Z,14.80
2022-09-12T07:10:54.730Z,14.80
2022-09-12T07:11:30.433Z,14.80
2022-09-12T07:12:04.308Z,14.80
2022-09-12T07:12:36.062Z,14.90
2022-09-12T07:13:07.821Z,14.90
2022-09-12T07:13:41.318Z,14.90
2022-09-12T07:14:14.988Z,14.90
2022-09-12T07:14:46.774Z,14.90
2022-09-12T07:15:19.501Z,15.00
2022-09-12T07:15:51.677Z,15.00
2022-09-12T07:16:24.570Z,15.00
2022-09-12T07:16:56.506Z,15.00
2022-09-12T07:17:28.853Z,15.00
2022-09-12T07:18:01.637Z,15.10
2022-09-12T07:18:34.108Z,15.10
2022-09-12T07:19:07.500Z,15.10
2022-09-12T07:19:40.255Z,15.20
2022-09-12T07:20:12.098Z,15.20
2022-09-12T07:20:43.950Z,15.20
2022-09-12T07:21:16.900Z,15.20
2022-09-12T07:21:50.061Z,15.20
2022-09-12T07:22:22.797Z,15.30
2022-09-12T07:22:54.563Z,15.30
2022-09-12T07:23:26.362Z,15.30
2022-09-12T07:23:59.694Z,15.30
2022-09-12T07:24:31.436Z,15.30
2022-09-12T07:25:04.954Z,15.30
2022-09-12T07:25:37.587Z,15.30
2022-09-12T07:26:12.820Z,15.40
2022-09-12T07:26:44.641Z,15.30
2022-09-12T07:27:16.408Z,15.30
2022-09-12T07:27:51.221Z,15.30
2022-09-12T07:28:24.243Z,15.30
2022-09-12T07:29:12.719Z,15.30